createdAt,value
2022-08-09T00:00:34.819Z,1.77
2022-08-09T00:04:03.504Z,1.80
2022-08-09T00:06:18.347Z,2.10
2022-08-09T00:08:48.426Z,2.10
2022-08-09T00:11:24.786Z,2.43
2022-08-09T00:13:52.576Z,2.40
2022-08-09T00:16:25.943Z,2.33
2022-08-09T00:18:53.493Z,2.37
2022-08-09T00:21:20.869Z,2.30
2022-08-09T00:23:57.368Z,2.53
2022-08-09T00:26:29.951Z,2.40
2022-08-09T00:29:02.157Z,2.10
2022-08-09T00:31:58.094Z,2.40
2022-08-09T00:34:19.007Z,2.10
2022-08-09T00:36:49.682Z,2.10
2022-08-09T00:40:14.161Z,2.00
2022-08-09T00:44:15.137Z,1.90
2022-08-09T00:44:52.118Z,2.07
2022-08-09T00:47:21.729Z,2.00
2022-08-09T00:49:56.671Z,2.27
2022-08-09T00:52:28.068Z,1.73
2022-08-09T00:55:02.229Z,1.80
2022-08-09T00:57:33.898Z,2.00
2022-08-09T01:00:21.107Z,2.00
2022-08-09T01:02:56.018Z,1.93
2022-08-09T01:05:54.830Z,1.90
2022-08-09T01:08:49.010Z,1.80
2022-08-09T01:11:36.401Z,1.67
2022-08-09T01:14:24.135Z,1.70
2022-08-09T01:17:19.236Z,1.77
2022-08-09T01:20:06.768Z,2.10
2022-08-09T01:22:58.195Z,2.07
2022-08-09T01:25:51.238Z,2.00
2022-08-09T01:28:22.707Z,1.97
2022-08-09T01:30:58.243Z,2.13
2022-08-09T01:33:32.257Z,2.00
2022-08-09T01:36:13.731Z,2.23
2022-08-09T01:38:46.978Z,2.13
2022-08-09T01:41:26.089Z,1.93
2022-08-09T01:43:57.862Z,2.00
2022-08-09T01:46:47.006Z,1.90
2022-08-09T01:49:24.161Z,1.83
2022-08-09T01:52:07.296Z,2.13
2022-08-09T01:54:48.505Z,1.80
2022-08-09T01:57:29.653Z,1.90
2022-08-09T02:00:19.211Z,1.90
2022-08-09T02:02:59.075Z,2.10
2022-08-09T02:05:38.115Z,1.80
2022-08-09T02:08:40.946Z,2.10
2022-08-09T02:11:17.254Z,1.93
2022-08-09T02:14:06.494Z,2.07
2022-08-09T02:16:53.097Z,1.80
2022-08-09T02:19:23.197Z,2.00
2022-08-09T02:21:55.994Z,1.97
2022-08-09T02:24:29.434Z,1.90
2022-08-09T02:27:01.963Z,2.10
2022-08-09T02:29:37.220Z,1.97
2022-08-09T02:32:07.538Z,2.20
2022-08-09T02:34:41.773Z,2.10
2022-08-09T02:37:31.778Z,1.77
2022-08-09T02:40:10.906Z,2.03
2022-08-09T02:42:42.189Z,2.10
2022-08-09T02:45:16.641Z,2.13
2022-08-09T02:47:57.391Z,2.27
2022-08-09T02:50:44.915Z,2.00
2022-08-09T02:53:31.520Z,2.17
2022-08-09T02:56:03.359Z,1.93
2022-08-09T02:58:37.403Z,1.90
2022-08-09T03:01:07.784Z,2.00
2022-08-09T03:04:17.839Z,2.03
2022-08-09T03:06:29.121Z,2.03
2022-08-09T03:08:57.554Z,2.07
2022-08-09T03:12:03.978Z,2.13
2022-08-09T03:14:16.023Z,2.00
2022-08-09T03:16:45.100Z,2.00
2022-08-09T03:19:59.204Z,1.80
2022-08-09T03:22:06.083Z,2.07
2022-08-09T03:24:42.741Z,2.40
2022-08-09T03:27:21.631Z,2.07
2022-08-09T03:29:57.814Z,2.00
2022-08-09T03:32:31.487Z,2.40
2022-08-09T03:35:00.370Z,1.97
2022-08-09T03:37:54.602Z,1.70
2022-08-09T03:40:18.070Z,2.03
2022-08-09T03:42:46.767Z,2.07
2022-08-09T03:45:14.105Z,1.90
2022-08-09T03:47:46.816Z,2.00
2022-08-09T03:50:18.729Z,2.30
2022-08-09T03:52:59.793Z,2.27
2022-08-09T03:55:30.163Z,2.13
2022-08-09T03:58:14.851Z,2.00
2022-08-09T04:00:45.199Z,2.10
2022-08-09T04:03:15.344Z,1.80
2022-08-09T04:05:52.139Z,1.70
2022-08-09T04:08:19.226Z,2.10
2022-08-09T04:10:56.063Z,2.00
2022-08-09T04:14:36.570Z,2.00
2022-08-09T04:16:19.719Z,2.00
2022-08-09T04:18:49.271Z,1.87
2022-08-09T04:21:18.970Z,2.10
2022-08-09T04:23:54.381Z,2.00
2022-08-09T04:26:25.209Z,2.20
2022-08-09T04:29:10.965Z,1.53
2022-08-09T04:31:47.137Z,1.63
2022-08-09T04:34:19.000Z,1.90
2022-08-09T04:36:57.509Z,2.00
2022-08-09T04:39:24.495Z,1.90
2022-08-09T04:41:51.667Z,1.90
2022-08-09T04:44:18.733Z,2.00
2022-08-09T04:46:58.097Z,1.80
2022-08-09T04:49:52.559Z,2.00
2022-08-09T04:52:28.678Z,2.03
2022-08-09T04:54:59.371Z,2.47
2022-08-09T04:57:27.152Z,2.10
2022-08-09T05:00:14.462Z,1.77
2022-08-09T05:02:44.302Z,2.30
2022-08-09T05:05:18.946Z,2.40
2022-08-09T05:07:59.470Z,1.93
2022-08-09T05:10:27.254Z,2.20
2022-08-09T05:12:54.688Z,2.03
2022-08-09T05:15:24.710Z,2.27
2022-08-09T05:18:55.135Z,2.20
2022-08-09T05:20:53.183Z,1.90
2022-08-09T05:23:54.786Z,1.80
2022-08-09T05:26:06.968Z,2.10
2022-08-09T05:28:34.645Z,2.00
2022-08-09T05:31:09.475Z,1.90
2022-08-09T05:33:38.844Z,2.00
2022-08-09T05:36:09.632Z,2.00
2022-08-09T05:38:39.141Z,2.03
2022-08-09T05:41:06.455Z,1.87
2022-08-09T05:43:40.667Z,2.00
2022-08-09T05:46:13.473Z,2.03
2022-08-09T05:48:40.337Z,1.93
2022-08-09T05:51:29.970Z,1.80
2022-08-09T05:53:57.366Z,1.93
2022-08-09T05:56:26.146Z,1.90
2022-08-09T05:58:58.607Z,1.70
2022-08-09T06:01:33.660Z,1.90
2022-08-09T06:04:09.579Z,2.10
2022-08-09T06:06:43.797Z,2.00
2022-08-09T06:09:41.139Z,1.93
2022-08-09T06:12:00.897Z,2.00
2022-08-09T06:14:27.760Z,1.83
2022-08-09T06:16:55.510Z,2.00
2022-08-09T06:19:24.399Z,2.03
2022-08-09T06:21:58.655Z,2.27
2022-08-09T06:24:26.518Z,2.17
2022-08-09T06:26:53.594Z,2.00
2022-08-09T06:29:21.424Z,2.20
2022-08-09T06:32:08.163Z,2.20
2022-08-09T06:34:35.440Z,2.40
2022-08-09T06:37:04.061Z,2.07
2022-08-09T06:39:57.412Z,2.47
2022-08-09T06:42:24.924Z,2.80
2022-08-09T06:44:55.659Z,2.40
2022-08-09T06:47:24.350Z,2.30
2022-08-09T06:50:13.861Z,2.70
2022-08-09T06:52:46.914Z,2.40
2022-08-09T06:55:17.305Z,2.10
2022-08-09T06:58:02.775Z,2.20
2022-08-09T07:00:52.112Z,2.20
2022-08-09T07:03:18.371Z,2.50
2022-08-09T07:05:58.419Z,2.20
2022-08-09T07:08:31.351Z,1.83
2022-08-09T07:10:58.608Z,2.10
2022-08-09T07:13:28.123Z,2.10
2022-08-09T07:16:41.951Z,2.03
2022-08-09T07:18:47.330Z,1.93
2022-08-09T07:21:17.256Z,2.00
2022-08-09T07:23:46.668Z,1.83
2022-08-09T07:26:23.726Z,2.10
2022-08-09T07:29:08.526Z,1.97
2022-08-09T07:31:38.364Z,2.10
2022-08-09T07:34:19.490Z,2.00
2022-08-09T07:36:49.210Z,1.83
2022-08-09T07:39:20.611Z,2.13
2022-08-09T07:42:03.393Z,1.80
2022-08-09T07:44:33.004Z,2.10
2022-08-09T07:47:19.762Z,1.87
2022-08-09T07:50:04.693Z,2.00
2022-08-09T07:52:33.240Z,1.90
2022-08-09T07:55:08.847Z,2.00
2022-08-09T07:57:36.692Z,1.80
2022-08-09T08:00:08.664Z,1.83
2022-08-09T08:02:42.238Z,1.77
2022-08-09T08:05:18.784Z,1.83
2022-08-09T08:08:44.321Z,2.10
2022-08-09T08:10:34.294Z,1.87
2022-08-09T08:13:04.644Z,2.00
2022-08-09T08:15:37.676Z,1.73
2022-08-09T08:18:06.249Z,1.80
2022-08-09T08:20:33.606Z,1.70
2022-08-09T08:23:15.974Z,1.90
2022-08-09T08:25:46.251Z,2.00
2022-08-09T08:28:18.161Z,1.87
2022-08-09T08:30:53.287Z,1.70
2022-08-09T08:33:24.039Z,1.83
2022-08-09T08:36:00.479Z,1.70
2022-08-09T08:38:30.595Z,2.00
2022-08-09T08:40:59.153Z,2.00
2022-08-09T08:43:27.886Z,1.70
2022-08-09T08:46:32.016Z,1.67
2022-08-09T08:48:51.735Z,1.60
2022-08-09T08:51:23.028Z,1.77
2022-08-09T08:54:03.159Z,1.60
2022-08-09T08:56:43.490Z,1.83
2022-08-09T08:59:19.805Z,1.80
2022-08-09T09:01:53.290Z,1.80
2022-08-09T09:04:41.280Z,1.70
2022-08-09T09:07:16.274Z,1.70
2022-08-09T09:09:59.404Z,1.60
2022-08-09T09:12:34.378Z,1.80
2022-08-09T09:15:06.093Z,1.70
2022-08-09T09:17:48.214Z,1.65
2022-08-09T09:20:16.702Z,1.57
2022-08-09T09:23:01.982Z,1.50
2022-08-09T09:26:05.096Z,1.60
2022-08-09T09:29:01.959Z,1.70
2022-08-09T09:32:03.931Z,1.83
2022-08-09T09:34:18.177Z,1.67
2022-08-09T09:36:53.210Z,1.50
2022-08-09T09:39:42.845Z,1.42
2022-08-09T09:42:27.626Z,1.50
2022-08-09T09:45:03.235Z,1.50
2022-08-09T09:47:32.920Z,1.50
2022-08-09T09:50:15.053Z,1.50
2022-08-09T09:52:55.873Z,1.50
2022-08-09T09:55:31.970Z,1.55
2022-08-09T09:58:17.089Z,1.60
2022-08-09T10:00:58.715Z,1.70
2022-08-09T10:03:57.256Z,1.60
2022-08-09T10:06:53.890Z,1.50
2022-08-09T10:09:23.806Z,1.65
2022-08-09T10:12:12.865Z,1.70
2022-08-09T10:14:47.774Z,1.60
2022-08-09T10:17:50.965Z,1.60
2022-08-09T10:20:32.613Z,1.65
2022-08-09T10:23:22.569Z,1.60
2022-08-09T10:26:04.224Z,1.60
2022-08-09T10:28:36.686Z,1.52
2022-08-09T10:34:08.676Z,1.75
2022-08-09T10:36:40.306Z,1.60
2022-08-09T10:39:15.905Z,1.65
2022-08-09T10:41:47.745Z,1.50
2022-08-09T10:44:24.993Z,1.60
2022-08-09T10:47:20.472Z,1.73
2022-08-09T10:50:27.085Z,1.65
2022-08-09T10:53:19.784Z,1.65
2022-08-09T10:55:58.357Z,1.52
2022-08-09T10:58:33.840Z,1.63
2022-08-09T11:03:06.724Z,1.60
2022-08-09T11:04:29.868Z,1.55
2022-08-09T11:06:59.924Z,1.55
2022-08-09T11:09:41.378Z,1.60
2022-08-09T11:12:29.714Z,1.70
2022-08-09T11:15:08.045Z,1.88
2022-08-09T11:17:41.992Z,1.75
2022-08-09T11:20:22.757Z,1.48
2022-08-09T11:22:57.217Z,1.60
2022-08-09T11:25:35.992Z,1.50
2022-08-09T11:28:38.772Z,1.60
2022-08-09T11:31:49.703Z,1.40
2022-08-09T11:34:48.944Z,1.50
2022-08-09T11:37:31.233Z,1.50
2022-08-09T11:40:10.103Z,1.50
2022-08-09T11:42:48.840Z,1.50
2022-08-09T11:45:23.043Z,1.45
2022-08-09T11:47:54.782Z,1.65
2022-08-09T11:50:54.223Z,1.63
2022-08-09T11:53:20.682Z,1.45
2022-08-09T11:56:20.794Z,1.60
2022-08-09T11:59:09.704Z,1.40
2022-08-09T12:02:16.930Z,1.48
2022-08-09T12:04:37.137Z,1.50
2022-08-09T12:07:07.765Z,1.42
2022-08-09T12:09:36.365Z,1.40
2022-08-09T12:12:12.112Z,1.38
2022-08-09T12:15:08.494Z,1.58
2022-08-09T12:17:42.978Z,1.42
2022-08-09T12:20:23.920Z,1.30
2022-08-09T12:22:59.640Z,1.40
2022-08-09T12:25:36.458Z,1.30
2022-08-09T12:29:11.255Z,1.60
2022-08-09T12:31:30.808Z,1.38
2022-08-09T12:34:05.241Z,1.40
2022-08-09T12:36:33.950Z,1.33
2022-08-09T12:39:00.938Z,1.40
2022-08-09T12:41:39.280Z,1.60
2022-08-09T12:44:09.768Z,1.40
2022-08-09T12:46:41.531Z,1.40
2022-08-09T12:49:10.773Z,1.33
2022-08-09T12:52:00.728Z,1.50
2022-08-09T12:54:24.825Z,1.50
2022-08-09T12:56:54.002Z,1.40
2022-08-09T12:59:39.763Z,1.42
2022-08-09T13:02:11.783Z,1.40
2022-08-09T13:04:41.923Z,1.50
2022-08-09T13:07:19.816Z,1.40
2022-08-09T13:10:02.651Z,1.27
2022-08-09T13:12:29.567Z,1.50
2022-08-09T13:15:07.762Z,1.35
2022-08-09T13:18:03.430Z,1.40
2022-08-09T13:20:50.199Z,1.40
2022-08-09T13:24:44.658Z,1.38
2022-08-09T13:26:50.237Z,1.40
2022-08-09T13:29:20.667Z,1.20
2022-08-09T13:32:19.289Z,1.40
2022-08-09T13:34:52.313Z,1.17
2022-08-09T13:37:51.078Z,1.20
2022-08-09T13:41:45.744Z,1.40
2022-08-09T13:42:54.456Z,1.30
2022-08-09T13:45:21.331Z,1.30
2022-08-09T13:47:59.295Z,1.23
2022-08-09T13:50:31.166Z,1.10
2022-08-09T13:52:58.911Z,1.30
2022-08-09T13:55:28.976Z,1.25
2022-08-09T13:57:59.348Z,1.13
2022-08-09T14:00:28.895Z,1.10
2022-08-09T14:03:03.976Z,1.10
2022-08-09T14:05:59.816Z,1.20
2022-08-09T14:08:30.543Z,1.42
2022-08-09T14:11:00.184Z,1.20
2022-08-09T14:14:16.150Z,1.25
2022-08-09T14:16:16.908Z,1.25
2022-08-09T14:18:49.371Z,1.20
2022-08-09T14:21:23.153Z,1.27
2022-08-09T14:23:54.820Z,1.00
2022-08-09T14:26:33.814Z,1.20
2022-08-09T14:29:08.196Z,1.27
2022-08-09T14:31:53.750Z,1.20
2022-08-09T14:34:27.207Z,1.30
2022-08-09T14:36:58.859Z,1.30
2022-08-09T14:39:45.232Z,1.15
2022-08-09T14:42:12.585Z,1.00
2022-08-09T14:44:48.179Z,1.20
2022-08-09T14:47:42.952Z,1.20
2022-08-09T14:50:03.581Z,1.45
2022-08-09T14:52:30.403Z,1.15
2022-08-09T14:54:57.173Z,1.20
2022-08-09T14:57:31.798Z,1.42
2022-08-09T14:59:59.091Z,1.23
2022-08-09T15:02:27.783Z,1.20
2022-08-09T15:04:54.462Z,1.30
2022-08-09T15:07:21.264Z,1.10
2022-08-09T15:10:07.941Z,1.10
2022-08-09T15:12:35.490Z,1.30
2022-08-09T15:15:02.597Z,1.38
2022-08-09T15:17:29.315Z,1.20
2022-08-09T15:20:02.237Z,1.10
2022-08-09T15:22:29.524Z,1.20
2022-08-09T15:24:56.487Z,1.30
2022-08-09T15:27:23.224Z,1.20
2022-08-09T15:30:56.406Z,1.30
2022-08-09T15:32:37.034Z,1.20
2022-08-09T15:35:18.149Z,1.30
2022-08-09T15:38:10.655Z,1.13
2022-08-09T15:40:43.446Z,1.40
2022-08-09T15:43:13.207Z,1.02
2022-08-09T15:46:08.027Z,1.20
2022-08-09T15:48:30.480Z,1.30
2022-08-09T15:50:58.392Z,1.30
2022-08-09T15:54:08.154Z,1.40
2022-08-09T15:56:28.345Z,1.30
2022-08-09T15:58:58.190Z,1.20
2022-08-09T16:01:25.120Z,1.40
2022-08-09T16:03:52.394Z,1.25
2022-08-09T16:06:34.780Z,1.30
2022-08-09T16:09:04.763Z,1.30
2022-08-09T16:11:33.238Z,1.65
2022-08-09T16:14:05.271Z,1.45
2022-08-09T16:19:01.442Z,1.48
2022-08-09T16:21:31.658Z,1.40
2022-08-09T16:24:02.364Z,1.40
2022-08-09T16:26:35.237Z,1.40
2022-08-09T16:29:16.390Z,1.40
2022-08-09T16:32:19.794Z,1.20
2022-08-09T16:34:55.516Z,1.60
2022-08-09T16:37:53.487Z,1.30
2022-08-09T16:40:12.597Z,1.55
2022-08-09T16:42:45.369Z,1.38
2022-08-09T16:45:16.830Z,1.40
2022-08-09T16:48:42.960Z,1.58
2022-08-09T16:50:34.277Z,1.40
2022-08-09T16:53:02.335Z,1.30
2022-08-09T16:55:31.571Z,1.67
2022-08-09T16:58:17.045Z,1.50
2022-08-09T17:00:46.639Z,1.55
2022-08-09T17:03:22.658Z,1.60
2022-08-09T17:06:07.319Z,1.75
2022-08-09T17:09:04.902Z,1.73
2022-08-09T17:11:40.167Z,1.80
2022-08-09T17:14:26.192Z,1.80
2022-08-09T17:16:59.515Z,1.70
2022-08-09T17:20:11.181Z,1.70
2022-08-09T17:22:35.719Z,1.85
2022-08-09T17:25:10.055Z,1.80
2022-08-09T17:27:48.784Z,1.58
2022-08-09T17:30:17.234Z,1.52
2022-08-09T17:32:46.861Z,1.73
2022-08-09T17:35:14.563Z,1.80
2022-08-09T17:38:11.179Z,1.63
2022-08-09T17:40:30.429Z,1.77
2022-08-09T17:43:11.225Z,1.40
2022-08-09T17:46:03.580Z,1.48
2022-08-09T17:48:39.498Z,1.50
2022-08-09T17:51:17.048Z,1.50
2022-08-09T17:53:52.077Z,1.40
2022-08-09T17:56:27.757Z,1.67
2022-08-09T17:59:03.003Z,1.77
2022-08-09T18:02:03.717Z,1.40
2022-08-09T18:04:21.045Z,1.50
2022-08-09T18:06:54.180Z,1.70
2022-08-09T18:09:40.446Z,1.48
2022-08-09T18:12:15.332Z,1.70
2022-08-09T18:14:49.673Z,1.40
2022-08-09T18:17:19.030Z,1.50
2022-08-09T18:20:58.362Z,1.50
2022-08-09T18:22:53.909Z,1.48
2022-08-09T18:25:21.029Z,1.40
2022-08-09T18:28:21.639Z,1.40
2022-08-09T18:30:54.729Z,1.50
2022-08-09T18:33:23.330Z,1.55
2022-08-09T18:35:58.809Z,1.42
2022-08-09T18:38:27.397Z,1.60
2022-08-09T18:40:55.553Z,1.25
2022-08-09T18:43:23.396Z,1.40
2022-08-09T18:46:46.423Z,1.60
2022-08-09T18:48:37.724Z,1.40
2022-08-09T18:51:04.776Z,1.45
2022-08-09T18:53:56.639Z,1.90
2022-08-09T18:56:28.004Z,1.60
2022-08-09T18:58:56.224Z,1.70
2022-08-09T19:01:23.760Z,1.77
2022-08-09T19:03:54.705Z,1.65
2022-08-09T19:06:33.622Z,1.88
2022-08-09T19:09:02.673Z,1.80
2022-08-09T19:11:37.484Z,2.25
2022-08-09T19:14:08.197Z,2.40
2022-08-09T19:16:36.640Z,2.35
2022-08-09T19:19:19.240Z,2.58
2022-08-09T19:22:06.622Z,2.53
2022-08-09T19:24:39.790Z,2.60
2022-08-09T19:27:21.760Z,2.60
2022-08-09T19:30:21.596Z,2.60
2022-08-09T19:32:36.808Z,2.70
2022-08-09T19:35:04.315Z,2.42
2022-08-09T19:37:40.989Z,2.35
2022-08-09T19:40:19.040Z,2.50
2022-08-09T19:42:49.642Z,2.20
2022-08-09T19:45:17.127Z,2.10
2022-08-09T19:47:45.023Z,2.10
2022-08-09T19:50:48.911Z,2.08
2022-08-09T19:53:04.072Z,2.20
2022-08-09T19:56:02.340Z,2.00
2022-08-09T19:58:29.629Z,1.70
2022-08-09T20:00:59.079Z,1.92
2022-08-09T20:04:18.019Z,2.03
2022-08-09T20:06:31.706Z,2.03
2022-08-09T20:08:59.607Z,1.70
2022-08-09T20:11:43.064Z,1.83
2022-08-09T20:14:15.738Z,1.95
2022-08-09T20:16:53.908Z,1.90
2022-08-09T20:19:47.407Z,2.00
2022-08-09T20:22:14.775Z,1.77
2022-08-09T20:24:43.097Z,2.00
2022-08-09T20:27:22.681Z,1.80
2022-08-09T20:29:50.182Z,1.90
2022-08-09T20:32:30.002Z,2.20
2022-08-09T20:35:09.087Z,1.83
2022-08-09T20:38:20.669Z,1.80
2022-08-09T20:40:29.284Z,1.80
2022-08-09T20:43:12.000Z,1.70
2022-08-09T20:46:00.491Z,1.65
2022-08-09T20:48:37.287Z,1.60
2022-08-09T20:51:06.046Z,1.70
2022-08-09T20:53:37.383Z,1.90
2022-08-09T20:56:20.397Z,2.10
2022-08-09T20:58:58.051Z,2.13
2022-08-09T21:01:34.973Z,2.00
2022-08-09T21:05:54.482Z,2.23
2022-08-09T21:07:13.109Z,2.00
2022-08-09T21:09:56.701Z,2.30
2022-08-09T21:15:14.106Z,2.20
2022-08-09T21:18:22.113Z,2.40
2022-08-09T21:20:32.601Z,2.33
2022-08-09T21:23:02.918Z,2.20
2022-08-09T21:25:56.298Z,2.33
2022-08-09T21:28:35.014Z,2.33
2022-08-09T21:31:18.031Z,2.27
2022-08-09T21:33:52.353Z,2.30
2022-08-09T21:36:30.629Z,2.13
2022-08-09T21:39:04.827Z,2.10
2022-08-09T21:42:04.476Z,2.40
2022-08-09T21:44:33.238Z,1.90
2022-08-09T21:47:05.882Z,2.43
2022-08-09T21:49:39.966Z,2.10
2022-08-09T21:52:16.779Z,2.30
2022-08-09T21:54:56.869Z,2.10
2022-08-09T21:57:38.867Z,2.10
2022-08-09T22:00:25.937Z,2.50
2022-08-09T22:02:58.313Z,2.70
2022-08-09T22:05:35.421Z,2.50
2022-08-09T22:08:04.404Z,2.60
2022-08-09T22:10:31.376Z,2.50
2022-08-09T22:13:00.430Z,2.47
2022-08-09T22:15:36.974Z,2.27
2022-08-09T22:18:04.488Z,2.70
2022-08-09T22:20:40.773Z,2.27
2022-08-09T22:23:13.275Z,2.90
2022-08-09T22:26:07.414Z,2.40
2022-08-09T22:28:32.948Z,2.40
2022-08-09T22:31:00.900Z,2.60
2022-08-09T22:33:42.569Z,2.37
2022-08-09T22:36:19.352Z,2.73
2022-08-09T22:38:47.534Z,2.43
2022-08-09T22:41:14.409Z,2.20
2022-08-09T22:44:03.262Z,2.10
2022-08-09T22:48:13.807Z,2.10
2022-08-09T22:49:15.364Z,2.30
2022-08-09T22:51:49.325Z,2.20
2022-08-09T22:54:21.270Z,2.30
2022-08-09T22:56:50.742Z,2.10
2022-08-09T22:59:57.988Z,2.70
2022-08-09T23:02:08.142Z,2.23
2022-08-09T23:04:34.876Z,2.40
2022-08-09T23:07:31.118Z,2.40
2022-08-09T23:10:11.429Z,2.30
2022-08-09T23:12:38.150Z,2.30
2022-08-09T23:15:05.540Z,2.17
2022-08-09T23:17:32.566Z,2.57
2022-08-09T23:20:06.998Z,2.23
2022-08-09T23:22:34.551Z,2.17
2022-08-09T23:25:06.102Z,2.30
2022-08-09T23:27:33.015Z,2.30
2022-08-09T23:29:59.985Z,2.43
2022-08-09T23:32:26.683Z,2.30
2022-08-09T23:34:53.385Z,2.40
2022-08-09T23:37:22.803Z,2.23
2022-08-09T23:39:52.253Z,2.20
2022-08-09T23:42:18.946Z,2.40
2022-08-09T23:44:45.693Z,2.10
2022-08-09T23:47:12.667Z,2.13
2022-08-09T23:49:39.455Z,2.23
2022-08-09T23:52:06.256Z,2.10
2022-08-09T23:54:32.944Z,2.30
2022-08-09T23:57:01.493Z,2.07
2022-08-09T23:59:48.290Z,1.93
